Time;durP1;ratioP1;P1;durP2;ratioP2;P2;SDS_P1;SDS_P2;PMS_P1;PMS_P2;Temp;Humidity;BMP_temperature;BMP_pressure;BME280_temperature;BME280_humidity;BME280_pressure;Samples;Min_cycle;Max_cycle;Signal;HPM_P1;HPM_P2
2023/10/11 00:00:24;;;;;;;36.50;19.50;;;;;;;10.22;90.40;100023.82;216828;1270;140123;-67
2023/10/11 00:05:47;;;;;;;35.60;18.20;;;;;;;10.25;90.60;100010.26;216322;1272;141453;-68
2023/10/11 00:10:57;;;;;;;30.90;19.50;;;;;;;10.27;90.79;100006.83;216291;1270;140264;-67
2023/10/11 00:16:08;;;;;;;29.60;17.90;;;;;;;10.32;90.91;99998.40;217386;1270;140275;-68
2023/10/11 00:21:17;;;;;;;31.70;17.60;;;;;;;10.35;91.08;99990.65;217351;1268;140440;-68
2023/10/11 00:26:22;;;;;;;24.10;15.80;;;;;;;10.38;91.08;99995.65;216208;1270;140193;-67
2023/10/11 00:31:26;;;;;;;33.80;17.50;;;;;;;10.42;91.27;99992.38;217555;1270;140470;-68
2023/10/11 00:36:31;;;;;;;34.20;18.40;;;;;;;10.46;91.24;99996.21;216458;1270;140599;-68
2023/10/11 00:41:39;;;;;;;33.30;17.00;;;;;;;10.50;91.30;99993.00;217194;1270;140704;-67
2023/10/11 00:46:57;;;;;;;24.70;15.00;;;;;;;10.52;91.54;99988.73;217288;1268;139952;-68
2023/10/11 00:52:09;;;;;;;30.30;16.30;;;;;;;10.56;91.63;99984.31;217838;1268;141888;-68
2023/10/11 00:57:15;;;;;;;30.60;17.70;;;;;;;10.59;91.60;99977.05;216884;1270;140887;-68
2023/10/11 01:02:24;;;;;;;35.90;16.80;;;;;;;10.63;91.68;99972.60;217341;1268;142110;-68
2023/10/11 01:07:28;;;;;;;29.10;15.60;;;;;;;10.64;91.68;99968.85;218983;1268;141059;-68
2023/10/11 01:12:34;;;;;;;23.60;13.60;;;;;;;10.69;91.94;99961.39;217375;1270;142304;-68
2023/10/11 01:17:39;;;;;;;22.30;14.50;;;;;;;10.73;91.76;99944.52;218782;1267;142342;-68
2023/10/11 01:22:44;;;;;;;20.40;13.10;;;;;;;10.77;91.65;99941.84;217584;1270;141132;-68
2023/10/11 01:27:50;;;;;;;29.10;16.20;;;;;;;10.79;91.65;99940.40;217685;1270;141975;-68
2023/10/11 01:32:57;;;;;;;25.80;15.50;;;;;;;10.80;91.66;99937.60;216072;1272;141264;-67
2023/10/11 01:38:05;;;;;;;26.20;13.70;;;;;;;10.82;91.61;99938.44;216611;1272;140026;-68
2023/10/11 01:43:09;;;;;;;22.70;14.30;;;;;;;10.79;91.52;99925.21;216918;1270;140339;-67
2023/10/11 01:48:15;;;;;;;17.10;12.20;;;;;;;10.78;91.77;99926.35;217268;1268;141082;-68
2023/10/11 01:53:21;;;;;;;23.60;15.30;;;;;;;10.79;91.67;99920.14;216023;1270;140142;-67
2023/10/11 01:58:26;;;;;;;29.40;16.50;;;;;;;10.81;91.71;99923.11;216673;1268;139921;-67
2023/10/11 02:03:30;;;;;;;21.80;14.50;;;;;;;10.78;91.52;99923.44;216329;1269;140081;-67
2023/10/11 02:08:36;;;;;;;23.70;13.30;;;;;;;10.76;91.68;99921.66;216645;1268;140222;-68
2023/10/11 02:13:43;;;;;;;20.20;12.70;;;;;;;10.73;91.69;99912.48;216803;1270;141065;-68
2023/10/11 02:18:58;;;;;;;20.90;12.20;;;;;;;10.73;91.66;99903.51;216833;1270;140921;-67
2023/10/11 02:24:04;;;;;;;23.90;14.20;;;;;;;10.73;91.61;99895.88;216731;1269;139978;-68
2023/10/11 02:29:15;;;;;;;26.90;15.60;;;;;;;10.70;91.70;99895.36;215991;1270;140648;-67
2023/10/11 02:34:22;;;;;;;27.50;13.90;;;;;;;10.68;91.74;99887.48;217518;1269;141323;-68
2023/10/11 02:39:31;;;;;;;21.90;13.90;;;;;;;10.67;91.91;99885.80;216843;1272;140261;-68
2023/10/11 02:44:39;;;;;;;23.90;14.30;;;;;;;10.68;91.75;99887.21;216783;1270;140339;-67
2023/10/11 02:49:51;;;;;;;22.50;13.90;;;;;;;10.68;91.70;99889.55;216638;1270;141777;-67
2023/10/11 02:54:59;;;;;;;21.10;12.10;;;;;;;10.66;91.79;99888.88;217501;1269;139989;-68
2023/10/11 03:00:12;;;;;;;17.10;13.20;;;;;;;10.64;91.72;99880.18;217795;1270;140835;-68
2023/10/11 03:05:28;;;;;;;21.90;11.60;;;;;;;10.64;91.77;99874.73;218625;1269;140611;-68
2023/10/11 03:10:36;;;;;;;18.80;13.40;;;;;;;10.63;91.87;99870.67;218890;1269;140389;-68
2023/10/11 03:15:40;;;;;;;19.70;12.60;;;;;;;10.66;91.81;99865.34;218627;1269;140466;-68
2023/10/11 03:20:45;;;;;;;18.40;11.50;;;;;;;10.68;91.60;99863.05;217558;1269;141053;-68
2023/10/11 03:25:53;;;;;;;18.30;12.20;;;;;;;10.68;91.76;99856.02;217799;1270;140249;-68
2023/10/11 03:30:57;;;;;;;18.30;12.00;;;;;;;10.69;91.96;99843.62;215971;1270;141284;-67
2023/10/11 03:36:05;;;;;;;19.30;13.10;;;;;;;10.70;92.00;99839.95;217562;1270;141503;-68
2023/10/11 03:41:19;;;;;;;;;;;;;;;10.72;92.28;99832.92;216664;1268;140991;-68
2023/10/11 03:46:28;;;;;;;17.50;11.90;;;;;;;10.69;92.24;99825.02;217643;1269;127164;-70
2023/10/11 03:51:34;;;;;;;14.40;12.30;;;;;;;10.69;92.31;99816.36;216339;1270;141420;-68
2023/10/11 03:56:46;;;;;;;15.40;11.20;;;;;;;10.69;92.37;99812.99;216962;1270;140677;-68
2023/10/11 04:01:53;;;;;;;15.80;10.40;;;;;;;10.69;92.46;99811.20;216729;1270;140320;-68
2023/10/11 04:07:01;;;;;;;16.10;11.80;;;;;;;10.69;92.52;99809.21;216393;1270;141083;-68
2023/10/11 04:12:10;;;;;;;16.70;11.80;;;;;;;10.69;92.85;99802.95;216454;1270;139874;-68
2023/10/11 04:22:31;;;;;;;15.70;11.00;;;;;;;10.68;92.97;99797.42;217042;1268;127497;-67
2023/10/11 04:32:41;;;;;;;20.30;13.00;;;;;;;10.67;92.92;99790.30;216853;1268;140314;-67
2023/10/11 04:37:51;;;;;;;23.00;13.20;;;;;;;10.65;92.84;99792.40;217060;1268;141817;-68
2023/10/11 04:43:18;;;;;;;18.40;12.50;;;;;;;10.64;92.87;99791.19;217471;1270;140451;-67
2023/10/11 04:48:36;;;;;;;15.30;11.30;;;;;;;10.66;92.93;99792.67;216846;1272;140766;-68
2023/10/11 04:53:56;;;;;;;18.50;11.10;;;;;;;10.68;92.99;99792.73;217137;1267;140312;-68
2023/10/11 04:59:06;;;;;;;15.70;10.10;;;;;;;10.70;93.25;99789.88;218209;1268;140220;-67
2023/10/11 05:04:13;;;;;;;15.40;9.10;;;;;;;10.72;93.31;99784.64;218437;1268;140636;-67
2023/10/11 05:20:20;;;;;;;19.30;12.20;;;;;;;10.81;93.31;99785.14;216940;1269;140159;-68
2023/10/11 05:25:45;;;;;;;18.00;10.50;;;;;;;10.87;93.50;99786.51;217943;1270;142215;-69
2023/10/11 05:36:48;;;;;;;14.50;10.90;;;;;;;11.02;93.67;99777.16;214951;1275;140690;-70
2023/10/11 05:52:43;;;;;;;13.60;12.20;;;;;;;11.30;93.83;99769.90;216497;1272;141249;-68
2023/10/11 05:57:48;;;;;;;18.50;12.70;;;;;;;11.42;93.98;99766.44;216892;1267;139963;-69
2023/10/11 06:02:53;;;;;;;14.60;11.20;;;;;;;11.56;94.36;99757.58;216639;1269;140740;-69
2023/10/11 06:08:03;;;;;;;20.50;11.90;;;;;;;11.71;94.47;99759.47;216769;1268;141404;-69
2023/10/11 06:13:14;;;;;;;13.10;10.30;;;;;;;11.87;94.68;99764.31;216075;1272;140039;-69
2023/10/11 06:23:44;;;;;;;19.00;12.40;;;;;;;12.26;94.71;99767.86;217094;1270;140291;-67
2023/10/11 06:29:02;;;;;;;16.40;11.10;;;;;;;12.49;94.70;99768.52;216994;1268;140554;-67
2023/10/11 06:34:15;;;;;;;17.60;12.10;;;;;;;12.72;94.73;99770.27;217294;1268;142987;-69
2023/10/11 06:44:47;;;;;;;16.00;12.20;;;;;;;13.11;94.31;99763.65;216396;1268;141023;-68
2023/10/11 06:49:56;;;;;;;15.50;10.50;;;;;;;13.29;93.94;99763.11;217535;1268;140701;-68
2023/10/11 06:55:18;;;;;;;12.70;9.50;;;;;;;13.50;93.86;99763.37;217192;1268;140523;-68
2023/10/11 07:00:25;;;;;;;17.30;11.20;;;;;;;13.80;93.73;99758.84;218806;1269;140722;-69
2023/10/11 07:05:31;;;;;;;10.30;8.90;;;;;;;14.27;93.65;99756.63;218821;1267;140835;-69
2023/10/11 07:10:57;;;;;;;13.60;8.80;;;;;;;14.73;92.96;99747.95;218511;1268;140380;-67
2023/10/11 07:16:08;;;;;;;13.60;10.10;;;;;;;15.08;92.04;99739.27;216644;1270;139884;-67
2023/10/11 07:21:16;;;;;;;13.60;8.80;;;;;;;15.36;91.30;99735.04;216600;1270;140396;-67
2023/10/11 07:31:38;;;;;;;12.00;9.40;;;;;;;15.76;90.03;99733.40;216713;1270;139920;-68
2023/10/11 07:36:43;;;;;;;11.40;9.40;;;;;;;16.02;89.82;99730.27;217653;1270;140555;-68
2023/10/11 07:41:49;;;;;;;10.30;8.90;;;;;;;16.37;89.61;99722.20;217012;1270;140700;-69
2023/10/11 07:46:55;;;;;;;11.70;8.30;;;;;;;16.50;88.33;99711.45;216243;1270;140756;-68
2023/10/11 07:52:00;;;;;;;15.20;9.90;;;;;;;16.54;87.65;99715.14;216238;1271;140351;-69
2023/10/11 07:57:05;;;;;;;10.70;8.30;;;;;;;16.65;87.72;99707.11;216307;1270;140346;-68
2023/10/11 08:02:26;;;;;;;12.70;9.60;;;;;;;16.87;87.46;99709.55;215946;1270;140200;-68
2023/10/11 08:07:32;;;;;;;10.70;7.60;;;;;;;17.01;86.79;99702.77;216250;1271;140856;-68
2023/10/11 08:12:38;;;;;;;8.70;7.40;;;;;;;17.17;86.75;99704.33;216139;1272;139729;-68
2023/10/11 08:17:43;;;;;;;10.80;9.20;;;;;;;17.44;86.52;99703.23;216057;1268;139606;-68
2023/10/11 08:22:48;;;;;;;13.90;8.40;;;;;;;17.68;86.05;99693.90;216823;1268;139938;-67
2023/10/11 08:28:12;;;;;;;12.00;8.90;;;;;;;17.99;85.56;99684.64;216678;1268;140749;-67
2023/10/11 08:33:17;;;;;;;9.70;8.50;;;;;;;18.24;84.58;99684.13;216551;1267;141030;-67
2023/10/11 08:38:27;;;;;;;15.30;8.10;;;;;;;18.44;84.07;99671.80;217157;1268;140834;-67
2023/10/11 08:43:34;;;;;;;12.70;7.50;;;;;;;18.71;83.91;99674.52;216024;1272;140069;-68
2023/10/11 08:48:39;;;;;;;;;;;;;;;18.91;83.05;99671.67;216231;1268;140718;-69
2023/10/11 08:53:48;;;;;;;6.90;6.20;;;;;;;19.11;82.51;99668.02;217556;1268;126075;-68
2023/10/11 08:58:53;;;;;;;9.60;6.70;;;;;;;19.28;81.23;99668.74;217231;1268;142624;-68
2023/10/11 09:04:05;;;;;;;12.10;7.80;;;;;;;19.43;80.36;99660.46;217732;1268;139562;-68
2023/10/11 09:09:33;;;;;;;10.50;7.00;;;;;;;19.71;80.08;99651.05;218835;1267;140308;-69
2023/10/11 09:14:38;;;;;;;7.30;6.10;;;;;;;20.07;79.40;99649.10;217696;1268;141416;-67
2023/10/11 09:19:58;;;;;;;11.00;7.30;;;;;;;20.26;78.16;99643.80;217466;1271;139959;-67
2023/10/11 09:25:06;;;;;;;8.00;7.10;;;;;;;20.54;77.73;99642.56;216436;1271;142123;-67
2023/10/11 09:30:21;;;;;;;9.30;6.70;;;;;;;20.75;76.90;99643.92;216959;1268;139825;-66
2023/10/11 09:35:29;;;;;;;10.10;7.90;;;;;;;20.73;75.86;99635.35;216814;1268;139853;-67
2023/10/11 09:40:36;;;;;;;9.40;7.40;;;;;;;20.72;75.26;99633.10;216737;1270;139266;-67
2023/10/11 09:45:44;;;;;;;11.00;6.70;;;;;;;20.82;74.71;99628.09;216150;1272;140248;-68
2023/10/11 09:50:57;;;;;;;10.30;6.40;;;;;;;20.98;74.47;99631.42;216311;1268;140920;-66
2023/10/11 09:56:15;;;;;;;12.20;5.90;;;;;;;21.18;73.67;99640.77;216229;1268;140793;-66
2023/10/11 10:01:44;;;;;;;8.80;5.90;;;;;;;21.46;73.41;99643.01;216268;1271;140185;-66
2023/10/11 10:07:20;;;;;;;6.30;4.30;;;;;;;21.76;72.70;99635.66;216292;1268;139860;-67
2023/10/11 10:12:40;;;;;;;11.70;6.20;;;;;;;21.91;71.31;99631.45;217264;1268;139954;-66
2023/10/11 10:17:57;;;;;;;12.10;6.20;;;;;;;21.96;71.05;99628.21;216242;1271;140629;-67
2023/10/11 10:23:37;;;;;;;10.40;6.30;;;;;;;22.07;70.26;99631.08;216967;1270;139926;-68
2023/10/11 10:29:54;;;;;;;;;;;;;;;;;;;;;
2023/10/11 10:36:27;;;;;;;;;;;;;;;;;;;;;
2023/10/11 10:42:45;;;;;;;8.50;5.90;;;;;;;21.77;68.68;99626.25;216116;1276;220514;-68
2023/10/11 10:48:29;;;;;;;14.00;6.20;;;;;;;21.82;68.10;99621.34;214652;1279;139200;-66
2023/10/11 10:54:32;;;;;;;16.20;6.80;;;;;;;21.76;68.04;99618.58;215736;1276;219283;-67
2023/10/11 11:00:33;;;;;;;;;;;;;;;;;;;;;
2023/10/11 11:06:34;;;;;;;;;;;;;;;;;;;;;
2023/10/11 11:12:51;;;;;;;15.10;5.30;;;;;;;21.73;67.35;99600.76;218698;1270;224443;-67
2023/10/11 11:19:48;;;;;;;;;;;;;;;;;;;;;
2023/10/11 11:24:55;;;;;;;;;;;;;;;;;;;;;
2023/10/11 11:31:38;;;;;;;10.90;6.30;;;;;;;21.55;66.71;99597.80;216039;1273;386775;-68
2023/10/11 11:38:01;;;;;;;;;;;;;;;;;;;;;
2023/10/11 11:44:10;;;;;;;10.80;6.10;;;;;;;21.44;66.23;99591.89;216181;1273;233152;-69
2023/10/11 11:50:09;;;;;;;;;;;;;;;;;;;;;
2023/10/11 11:56:07;;;;;;;;;;;;;;;;;;;;;
2023/10/11 12:02:26;;;;;;;13.80;6.30;;;;;;;21.41;65.65;99564.70;217370;1268;139855;-68
2023/10/11 12:14:12;;;;;;;12.20;6.30;;;;;;;21.52;65.53;99562.59;214683;1276;247239;-68
2023/10/11 12:20:15;;;;;;;7.80;6.10;;;;;;;21.51;65.45;99561.56;214995;1276;376358;-68
2023/10/11 12:26:57;;;;;;;;;;;;;;;;;;;;;
2023/10/11 12:32:51;;;;;;;8.80;5.10;;;;;;;21.45;65.74;99561.39;216122;1272;139403;-69
2023/10/11 12:38:53;;;;;;;;;;;;;;;;;;;;;
2023/10/11 12:44:58;;;;;;;7.20;6.00;;;;;;;21.34;66.00;99547.06;219025;1264;244797;-68
2023/10/11 13:07:13;;;;;;;7.10;5.10;;;;;;;21.59;65.81;99538.24;205823;1267;982778;-75
2023/10/11 13:12:22;;;;;;;7.60;5.60;;;;;;;21.76;65.70;99531.54;216307;1267;139560;-73
2023/10/11 13:17:30;;;;;;;9.80;5.70;;;;;;;21.82;65.24;99538.54;216354;1270;140503;-71
2023/10/11 13:22:37;;;;;;;5.80;4.70;;;;;;;21.84;64.90;99535.18;216497;1268;139920;-72
2023/10/11 13:27:45;;;;;;;12.50;6.40;;;;;;;21.80;64.56;99531.91;217757;1268;139979;-72
2023/10/11 13:32:57;;;;;;;10.50;6.10;;;;;;;21.71;64.67;99522.33;216495;1270;139927;-72
2023/10/11 13:38:54;;;;;;;7.40;5.70;;;;;;;21.55;64.36;99507.44;216457;1268;139551;-75
2023/10/11 13:43:37;;;;;;;8.80;6.20;;;;;;;21.53;64.44;99490.89;216661;1267;139167;-71
2023/10/11 13:48:46;;;;;;;12.40;7.10;;;;;;;21.52;64.39;99489.77;216604;1267;139760;-73
2023/10/11 13:54:07;;;;;;;14.20;6.90;;;;;;;21.49;64.65;99495.66;216807;1268;139496;-71
2023/10/11 13:59:21;;;;;;;10.00;6.60;;;;;;;21.48;64.79;99494.48;217241;1268;139517;-70
2023/10/11 14:04:48;;;;;;;10.30;5.90;;;;;;;21.46;64.75;99480.88;217095;1268;140054;-71
2023/10/11 14:09:57;;;;;;;7.00;5.10;;;;;;;21.45;64.56;99485.55;216993;1269;139124;-72
2023/10/11 14:15:11;;;;;;;9.80;5.60;;;;;;;21.45;64.47;99480.48;218446;1268;139510;-71
2023/10/11 14:20:30;;;;;;;11.40;5.90;;;;;;;21.45;64.13;99474.94;216748;1268;139481;-71
2023/10/11 14:25:36;;;;;;;8.60;5.80;;;;;;;21.52;63.97;99477.84;217449;1268;140526;-71
2023/10/11 14:30:45;;;;;;;;;;;;;;;21.49;63.65;99474.10;217489;1268;139247;-72
2023/10/11 14:35:51;;;;;;;12.20;4.70;;;;;;;21.30;63.26;99470.19;216907;1266;126358;-71
2023/10/11 14:41:14;;;;;;;8.80;5.10;;;;;;;21.14;63.22;99465.92;217820;1270;140345;-72
2023/10/11 14:46:22;;;;;;;13.60;4.90;;;;;;;21.07;63.21;99476.52;217597;1268;139390;-71
2023/10/11 14:51:28;;;;;;;9.70;5.50;;;;;;;21.05;63.44;99465.89;216701;1268;139288;-69
2023/10/11 14:56:35;;;;;;;11.00;5.50;;;;;;;20.99;63.39;99461.45;217597;1267;139145;-71
2023/10/11 15:01:42;;;;;;;8.60;5.40;;;;;;;20.89;63.28;99473.02;216572;1267;139971;-71
2023/10/11 15:06:49;;;;;;;9.90;5.40;;;;;;;20.72;63.48;99475.17;216777;1268;139109;-70
2023/10/11 15:11:56;;;;;;;11.10;6.30;;;;;;;20.48;63.58;99474.77;216842;1270;139204;-73
2023/10/11 15:17:03;;;;;;;7.70;5.10;;;;;;;20.29;64.07;99473.80;217036;1267;139502;-69
2023/10/11 15:22:12;;;;;;;9.60;6.90;;;;;;;20.11;64.24;99471.57;216803;1267;141005;-71
2023/10/11 15:27:19;;;;;;;13.00;6.50;;;;;;;19.92;64.62;99467.41;217269;1267;139472;-71
2023/10/11 15:32:26;;;;;;;15.90;7.00;;;;;;;19.81;64.87;99464.69;216876;1268;140781;-72
2023/10/11 15:37:46;;;;;;;11.00;4.70;;;;;;;19.72;65.01;99464.55;216648;1269;141152;-72
2023/10/11 15:42:58;;;;;;;7.30;5.10;;;;;;;19.57;65.13;99473.70;217229;1268;140608;-72
2023/10/11 15:48:09;;;;;;;14.80;6.20;;;;;;;19.44;65.42;99479.11;216916;1270;139774;-71
2023/10/11 15:53:22;;;;;;;9.10;6.50;;;;;;;19.31;65.55;99473.90;216732;1268;140453;-73
2023/10/11 15:58:34;;;;;;;9.60;6.70;;;;;;;19.17;65.72;99470.31;216663;1268;139647;-72
2023/10/11 16:03:44;;;;;;;13.40;6.90;;;;;;;19.05;66.03;99479.81;216766;1268;140597;-76
2023/10/11 16:08:52;;;;;;;8.90;5.70;;;;;;;18.95;66.27;99482.42;218083;1270;140687;-71
2023/10/11 16:14:01;;;;;;;11.90;6.10;;;;;;;18.86;66.38;99475.23;216969;1270;139932;-70
2023/10/11 16:19:11;;;;;;;11.30;6.20;;;;;;;18.74;66.77;99480.86;217429;1268;139953;-71
2023/10/11 16:24:18;;;;;;;14.00;6.10;;;;;;;18.69;66.91;99482.41;217849;1269;140298;-71
2023/10/11 16:29:28;;;;;;;12.40;6.50;;;;;;;18.62;67.13;99498.95;216819;1268;140214;-70
2023/10/11 16:34:35;;;;;;;;;;;;;;;18.54;67.13;99502.92;218023;1270;140040;-71
2023/10/11 16:39:44;;;;;;;11.70;5.30;;;;;;;18.44;67.32;99504.30;217255;1269;126250;-73
2023/10/11 16:44:52;;;;;;;7.10;5.60;;;;;;;18.38;67.46;99507.63;216769;1270;140589;-74
2023/10/11 16:50:01;;;;;;;10.70;6.40;;;;;;;18.29;67.44;99508.78;216826;1269;140206;-74
2023/10/11 16:55:10;;;;;;;11.60;6.10;;;;;;;18.22;67.41;99508.55;217429;1268;139896;-73
2023/10/11 17:00:21;;;;;;;17.30;6.90;;;;;;;18.15;67.67;99507.34;217475;1267;140565;-73
2023/10/11 17:05:38;;;;;;;7.30;5.30;;;;;;;18.09;67.70;99505.14;217662;1267;141852;-71
2023/10/11 17:10:48;;;;;;;8.00;4.80;;;;;;;18.04;67.73;99495.08;217358;1268;140753;-72
2023/10/11 17:15:54;;;;;;;12.10;6.20;;;;;;;17.98;67.86;99497.43;216955;1270;139890;-73
2023/10/11 17:21:00;;;;;;;17.00;6.90;;;;;;;17.92;67.87;99497.56;216439;1270;140403;-74
2023/10/11 17:26:13;;;;;;;10.60;6.00;;;;;;;17.84;67.97;99496.61;216952;1269;140179;-75
2023/10/11 17:31:26;;;;;;;10.70;5.10;;;;;;;17.79;68.08;99496.02;216625;1268;233914;-75
2023/10/11 17:36:37;;;;;;;12.20;6.40;;;;;;;17.76;68.11;99491.25;216702;1267;141102;-74
2023/10/11 17:41:44;;;;;;;8.80;5.60;;;;;;;17.73;68.30;99491.14;217171;1267;140046;-75
2023/10/11 17:46:50;;;;;;;16.80;6.40;;;;;;;17.72;68.22;99485.13;216779;1267;139839;-72
2023/10/11 17:52:01;;;;;;;8.80;5.30;;;;;;;17.71;68.32;99480.45;216281;1267;223609;-71
2023/10/11 17:57:07;;;;;;;8.60;5.40;;;;;;;17.69;68.27;99483.23;217289;1266;140337;-73
2023/10/11 18:02:12;;;;;;;13.00;6.50;;;;;;;17.69;68.37;99478.11;216670;1267;140130;-75
2023/10/11 18:07:20;;;;;;;8.10;5.90;;;;;;;17.69;68.40;99473.95;218005;1267;141469;-75
2023/10/11 18:12:27;;;;;;;12.60;5.70;;;;;;;17.71;68.38;99468.91;216630;1267;139775;-75
2023/10/11 18:17:43;;;;;;;;;;;;;;;17.71;68.53;99462.22;216611;1267;139882;-74
2023/10/11 18:22:50;;;;;;;11.20;5.20;;;;;;;17.69;68.65;99461.86;218990;1270;126635;-75
2023/10/11 18:27:56;;;;;;;11.30;5.70;;;;;;;17.73;68.68;99460.41;216596;1270;139891;-75
2023/10/11 18:33:02;;;;;;;17.20;5.60;;;;;;;17.76;68.43;99457.13;218024;1266;142252;-72
2023/10/11 18:38:09;;;;;;;8.10;4.80;;;;;;;17.77;68.67;99459.33;217998;1268;232797;-76
2023/10/11 18:43:19;;;;;;;7.40;4.30;;;;;;;17.81;68.65;99461.29;217427;1268;141112;-75
2023/10/11 18:48:24;;;;;;;12.30;5.10;;;;;;;17.82;68.64;99466.11;217010;1270;140095;-74
2023/10/11 18:53:30;;;;;;;12.80;6.30;;;;;;;17.84;68.73;99460.92;216464;1271;140332;-70
2023/10/11 18:59:07;;;;;;;10.80;5.90;;;;;;;17.89;68.60;99456.67;217046;1271;140542;-75
2023/10/11 19:04:12;;;;;;;;;;;;;;;17.89;68.59;99457.15;216268;1271;140282;-75
2023/10/11 19:09:24;;;;;;;8.70;5.70;;;;;;;17.84;68.53;99461.13;216282;1274;127184;-74
2023/10/11 19:14:32;;;;;;;9.50;6.20;;;;;;;17.80;68.68;99463.02;216277;1271;139918;-75
2023/10/11 19:19:40;;;;;;;12.40;6.70;;;;;;;17.76;68.76;99463.98;216416;1274;140356;-75
2023/10/11 19:24:46;;;;;;;10.70;6.10;;;;;;;17.73;68.90;99460.30;216302;1271;140460;-74
2023/10/11 19:29:53;;;;;;;9.70;6.30;;;;;;;17.66;69.02;99463.63;216573;1271;141208;-74
2023/10/11 19:35:00;;;;;;;10.50;7.10;;;;;;;17.59;69.22;99467.77;216133;1271;140055;-78
2023/10/11 19:40:09;;;;;;;11.80;6.50;;;;;;;17.53;69.35;99467.62;216752;1271;139906;-71
2023/10/11 19:45:17;;;;;;;13.10;7.90;;;;;;;17.50;69.66;99464.84;216318;1268;140100;-75
2023/10/11 19:50:26;;;;;;;16.90;7.20;;;;;;;17.50;69.83;99466.73;216762;1269;139988;-74
2023/10/11 19:55:32;;;;;;;11.90;6.50;;;;;;;17.48;69.93;99464.70;216737;1271;141077;-74
2023/10/11 20:00:36;;;;;;;11.90;6.50;;;;;;;17.48;70.09;99469.13;217764;1268;140267;-75
2023/10/11 20:05:41;;;;;;;12.90;8.70;;;;;;;17.48;70.23;99467.94;216219;1269;141274;-73
2023/10/11 20:10:48;;;;;;;12.90;7.60;;;;;;;17.46;70.27;99459.17;217766;1267;141149;-73
2023/10/11 20:15:54;;;;;;;9.70;6.70;;;;;;;17.45;70.37;99453.48;217746;1271;140492;-74
2023/10/11 20:21:04;;;;;;;14.70;7.20;;;;;;;17.45;70.46;99456.39;218560;1269;140909;-74
2023/10/11 20:26:18;;;;;;;11.40;6.90;;;;;;;17.45;70.60;99455.58;218877;1266;140722;-74
2023/10/11 20:31:24;;;;;;;18.00;7.00;;;;;;;17.46;70.67;99454.33;218478;1269;141800;-73
2023/10/11 20:36:30;;;;;;;13.30;6.10;;;;;;;17.48;70.63;99449.77;218784;1267;140218;-74
2023/10/11 20:41:36;;;;;;;12.00;6.10;;;;;;;17.49;70.84;99446.05;216602;1267;139991;-68
2023/10/11 20:46:44;;;;;;;14.80;7.20;;;;;;;17.49;70.78;99439.84;218348;1270;139909;-74
2023/10/11 20:51:52;;;;;;;18.90;7.20;;;;;;;17.51;70.90;99437.63;217515;1267;141151;-72
2023/10/11 20:57:01;;;;;;;13.60;6.70;;;;;;;17.50;71.02;99430.35;217311;1267;140756;-75
2023/10/11 21:02:08;;;;;;;10.60;6.80;;;;;;;17.50;71.06;99433.91;217289;1267;140138;-77
2023/10/11 21:07:17;;;;;;;8.20;6.90;;;;;;;17.47;71.14;99430.05;217066;1270;140211;-74
2023/10/11 21:12:23;;;;;;;11.40;8.10;;;;;;;17.44;71.21;99426.70;216994;1270;140662;-77
2023/10/11 21:17:32;;;;;;;11.90;7.40;;;;;;;17.41;71.27;99417.74;217252;1270;140630;-74
2023/10/11 21:22:40;;;;;;;12.80;7.60;;;;;;;17.37;71.45;99413.34;217197;1268;139937;-75
2023/10/11 21:27:46;;;;;;;11.10;7.80;;;;;;;17.34;71.53;99412.83;216385;1267;140581;-73
2023/10/11 21:32:54;;;;;;;13.60;9.10;;;;;;;17.30;71.60;99410.39;216487;1270;139976;-74
2023/10/11 21:38:02;;;;;;;10.80;5.50;;;;;;;17.26;71.89;99409.08;216716;1267;140610;-74
2023/10/11 21:43:11;;;;;;;;;;;;;;;17.25;72.00;99403.75;218180;1267;140736;-75
2023/10/11 21:48:19;;;;;;;14.80;7.40;;;;;;;17.23;72.14;99402.11;218157;1267;126470;-73
2023/10/11 21:53:24;;;;;;;10.00;7.80;;;;;;;17.24;72.29;99393.21;217254;1267;140165;-75
2023/10/11 21:58:30;;;;;;;11.70;7.80;;;;;;;17.22;72.23;99388.22;217431;1270;139957;-75
2023/10/11 22:03:35;;;;;;;10.20;6.40;;;;;;;17.20;72.54;99384.73;216440;1271;140477;-75
2023/10/11 22:08:50;;;;;;;13.70;8.60;;;;;;;17.19;72.60;99383.83;218777;1267;140754;-76
2023/10/11 22:13:59;;;;;;;16.70;8.10;;;;;;;17.16;72.68;99377.44;219327;1267;140504;-76
2023/10/11 22:19:06;;;;;;;13.30;7.60;;;;;;;17.15;72.60;99373.73;219192;1267;140809;-76
2023/10/11 22:24:12;;;;;;;17.80;7.70;;;;;;;17.12;72.73;99368.02;219086;1266;140707;-75
2023/10/11 22:29:19;;;;;;;20.60;8.50;;;;;;;17.12;72.99;99370.98;217071;1268;140359;-75
2023/10/11 22:34:24;;;;;;;15.10;7.30;;;;;;;17.10;72.93;99371.99;218351;1267;140579;-75
2023/10/11 22:39:30;;;;;;;10.50;7.00;;;;;;;17.07;73.06;99368.57;217288;1267;140556;-75
2023/10/11 22:44:38;;;;;;;15.40;8.70;;;;;;;17.07;73.12;99366.36;216481;1267;140469;-75
2023/10/11 22:49:45;;;;;;;10.70;7.50;;;;;;;17.03;73.31;99360.70;218920;1267;141111;-74
2023/10/11 22:54:51;;;;;;;11.00;7.70;;;;;;;16.99;73.24;99368.12;217751;1266;139756;-74
2023/10/11 22:59:57;;;;;;;;;;;;;;;16.97;73.44;99359.85;216592;1266;862683;-74
2023/10/11 23:05:06;;;;;;;12.30;7.70;;;;;;;16.90;73.52;99358.19;217232;1266;127114;-74
2023/10/11 23:10:18;;;;;;;14.20;8.10;;;;;;;16.86;73.56;99353.98;217020;1267;140802;-75
2023/10/11 23:15:33;;;;;;;12.00;7.70;;;;;;;16.81;73.72;99350.85;216879;1267;141394;-75
2023/10/11 23:20:56;;;;;;;11.20;7.20;;;;;;;16.78;73.82;99354.06;217501;1267;142032;-74
2023/10/11 23:26:06;;;;;;;13.80;7.00;;;;;;;16.77;73.97;99349.98;216519;1267;139963;-74
2023/10/11 23:31:15;;;;;;;15.00;7.00;;;;;;;16.76;74.12;99348.55;216934;1266;139757;-74
2023/10/11 23:36:24;;;;;;;10.60;6.60;;;;;;;16.76;74.12;99351.79;216390;1266;139949;-74
2023/10/11 23:41:35;;;;;;;11.50;6.60;;;;;;;16.73;74.22;99343.41;217545;1267;140180;-74
2023/10/11 23:46:47;;;;;;;13.40;7.30;;;;;;;16.73;74.33;99345.73;217797;1267;139864;-76
2023/10/11 23:51:53;;;;;;;21.10;8.10;;;;;;;16.74;74.31;99339.95;218467;1267;139941;-75
2023/10/11 23:56:59;;;;;;;11.50;7.80;;;;;;;16.76;74.40;99335.52;216563;1270;140173;-74
